sensor_id;sensor_type;location;lat;lon;timestamp;temperature;humidity
792;DHT22;379;49.022;12.148;2023-12-20T00:02:03;2.70;99.90
792;DHT22;379;49.022;12.148;2023-12-20T00:04:30;2.70;99.90
792;DHT22;379;49.022;12.148;2023-12-20T00:06:56;2.70;99.90
792;DHT22;379;49.022;12.148;2023-12-20T00:09:23;2.70;99.90
792;DHT22;379;49.022;12.148;2023-12-20T00:11:51;2.70;99.90
792;DHT22;379;49.022;12.148;2023-12-20T00:14:18;2.70;99.90
792;DHT22;379;49.022;12.148;2023-12-20T00:16:45;2.70;99.90
792;DHT22;379;49.022;12.148;2023-12-20T00:19:11;2.70;99.90
792;DHT22;379;49.022;12.148;2023-12-20T00:21:38;2.70;99.90
792;DHT22;379;49.022;12.148;2023-12-20T00:24:05;2.70;99.90
792;DHT22;379;49.022;12.148;2023-12-20T00:26:32;2.70;99.90
792;DHT22;379;49.022;12.148;2023-12-20T00:28:59;2.70;99.90
792;DHT22;379;49.022;12.148;2023-12-20T00:31:25;2.60;99.90
792;DHT22;379;49.022;12.148;2023-12-20T00:33:52;2.70;99.90
792;DHT22;379;49.022;12.148;2023-12-20T00:36:20;2.70;99.90
792;DHT22;379;49.022;12.148;2023-12-20T00:38:47;2.70;99.90
792;DHT22;379;49.022;12.148;2023-12-20T00:41:15;2.70;99.90
792;DHT22;379;49.022;12.148;2023-12-20T00:43:42;2.70;99.90
792;DHT22;379;49.022;12.148;2023-12-20T00:46:11;2.70;99.90
792;DHT22;379;49.022;12.148;2023-12-20T00:48:38;2.70;99.90
792;DHT22;379;49.022;12.148;2023-12-20T00:51:07;2.70;99.90
792;DHT22;379;49.022;12.148;2023-12-20T00:53:34;2.70;99.90
792;DHT22;379;49.022;12.148;2023-12-20T00:56:01;2.70;99.90
792;DHT22;379;49.022;12.148;2023-12-20T00:58:27;2.70;99.90
792;DHT22;379;49.022;12.148;2023-12-20T01:00:54;2.70;99.90
792;DHT22;379;49.022;12.148;2023-12-20T01:03:22;2.70;99.90
792;DHT22;379;49.022;12.148;2023-12-20T01:05:49;2.70;99.90
792;DHT22;379;49.022;12.148;2023-12-20T01:08:16;2.70;99.90
792;DHT22;379;49.022;12.148;2023-12-20T01:10:42;2.70;99.90
792;DHT22;379;49.022;12.148;2023-12-20T01:13:09;2.70;99.90
792;DHT22;379;49.022;12.148;2023-12-20T01:15:35;2.60;99.90
792;DHT22;379;49.022;12.148;2023-12-20T01:18:02;2.60;99.90
792;DHT22;379;49.022;12.148;2023-12-20T01:20:30;2.60;99.90
792;DHT22;379;49.022;12.148;2023-12-20T01:22:57;2.50;99.90
792;DHT22;379;49.022;12.148;2023-12-20T01:25:23;2.50;99.90
792;DHT22;379;49.022;12.148;2023-12-20T01:27:50;2.50;99.90
792;DHT22;379;49.022;12.148;2023-12-20T01:30:17;2.50;99.90
792;DHT22;379;49.022;12.148;2023-12-20T01:32:43;2.50;99.90
792;DHT22;379;49.022;12.148;2023-12-20T01:35:10;2.50;99.90
792;DHT22;379;49.022;12.148;2023-12-20T01:37:39;2.50;99.90
792;DHT22;379;49.022;12.148;2023-12-20T01:40:07;2.40;99.90
792;DHT22;379;49.022;12.148;2023-12-20T01:42:33;2.50;99.90
792;DHT22;379;49.022;12.148;2023-12-20T01:45:00;2.50;99.90
792;DHT22;379;49.022;12.148;2023-12-20T01:47:28;2.50;99.90
792;DHT22;379;49.022;12.148;2023-12-20T01:49:54;2.50;99.90
792;DHT22;379;49.022;12.148;2023-12-20T01:52:23;2.50;99.90
792;DHT22;379;49.022;12.148;2023-12-20T01:54:52;2.40;99.90
792;DHT22;379;49.022;12.148;2023-12-20T01:57:22;2.50;99.90
792;DHT22;379;49.022;12.148;2023-12-20T01:59:49;2.50;99.90
792;DHT22;379;49.022;12.148;2023-12-20T02:02:17;2.50;99.90
792;DHT22;379;49.022;12.148;2023-12-20T02:04:43;2.50;99.90
792;DHT22;379;49.022;12.148;2023-12-20T02:07:11;2.50;99.90
792;DHT22;379;49.022;12.148;2023-12-20T02:09:38;2.50;99.90
792;DHT22;379;49.022;12.148;2023-12-20T02:12:07;2.50;99.90
792;DHT22;379;49.022;12.148;2023-12-20T02:14:33;2.50;99.90
792;DHT22;379;49.022;12.148;2023-12-20T02:17:00;2.50;99.90
792;DHT22;379;49.022;12.148;2023-12-20T02:19:27;2.50;99.90
792;DHT22;379;49.022;12.148;2023-12-20T02:22:07;2.50;99.90
792;DHT22;379;49.022;12.148;2023-12-20T02:24:34;2.60;99.90
792;DHT22;379;49.022;12.148;2023-12-20T02:27:00;2.60;99.90
792;DHT22;379;49.022;12.148;2023-12-20T02:29:27;2.70;99.90
792;DHT22;379;49.022;12.148;2023-12-20T02:31:54;2.70;99.90
792;DHT22;379;49.022;12.148;2023-12-20T02:34:20;2.80;99.90
792;DHT22;379;49.022;12.148;2023-12-20T02:36:47;2.90;99.90
792;DHT22;379;49.022;12.148;2023-12-20T02:39:15;2.90;99.90
792;DHT22;379;49.022;12.148;2023-12-20T02:41:42;3.00;99.90
792;DHT22;379;49.022;12.148;2023-12-20T02:44:09;3.10;99.90
792;DHT22;379;49.022;12.148;2023-12-20T02:46:35;3.10;99.90
792;DHT22;379;49.022;12.148;2023-12-20T02:49:02;3.20;99.90
792;DHT22;379;49.022;12.148;2023-12-20T02:51:29;3.20;99.90
792;DHT22;379;49.022;12.148;2023-12-20T02:53:56;3.30;99.90
792;DHT22;379;49.022;12.148;2023-12-20T02:56:24;3.30;99.90
792;DHT22;379;49.022;12.148;2023-12-20T02:58:50;3.30;99.90
792;DHT22;379;49.022;12.148;2023-12-20T03:01:17;3.30;99.90
792;DHT22;379;49.022;12.148;2023-12-20T03:03:44;3.40;99.90
792;DHT22;379;49.022;12.148;2023-12-20T03:06:10;3.40;99.90
792;DHT22;379;49.022;12.148;2023-12-20T03:08:37;3.40;99.90
792;DHT22;379;49.022;12.148;2023-12-20T03:11:04;3.40;99.90
792;DHT22;379;49.022;12.148;2023-12-20T03:13:32;3.40;99.90
792;DHT22;379;49.022;12.148;2023-12-20T03:15:58;3.40;99.90
792;DHT22;379;49.022;12.148;2023-12-20T03:18:25;3.40;99.90
792;DHT22;379;49.022;12.148;2023-12-20T03:20:53;3.50;99.90
792;DHT22;379;49.022;12.148;2023-12-20T03:23:20;3.50;99.90
792;DHT22;379;49.022;12.148;2023-12-20T03:25:46;3.50;99.90
792;DHT22;379;49.022;12.148;2023-12-20T03:28:14;3.50;99.90
792;DHT22;379;49.022;12.148;2023-12-20T03:30:42;3.50;99.90
792;DHT22;379;49.022;12.148;2023-12-20T03:33:09;3.50;99.90
792;DHT22;379;49.022;12.148;2023-12-20T03:35:36;3.50;99.90
792;DHT22;379;49.022;12.148;2023-12-20T03:38:03;3.60;99.90
792;DHT22;379;49.022;12.148;2023-12-20T03:40:29;3.60;99.90
792;DHT22;379;49.022;12.148;2023-12-20T03:42:56;3.60;99.90
792;DHT22;379;49.022;12.148;2023-12-20T03:45:23;3.60;99.90
792;DHT22;379;49.022;12.148;2023-12-20T03:47:51;3.70;99.90
792;DHT22;379;49.022;12.148;2023-12-20T03:50:20;3.70;99.90
792;DHT22;379;49.022;12.148;2023-12-20T03:52:47;3.70;99.90
792;DHT22;379;49.022;12.148;2023-12-20T03:55:14;3.70;99.90
792;DHT22;379;49.022;12.148;2023-12-20T03:57:41;3.70;99.90
792;DHT22;379;49.022;12.148;2023-12-20T04:00:09;3.70;99.90
792;DHT22;379;49.022;12.148;2023-12-20T04:02:36;3.70;99.90
792;DHT22;379;49.022;12.148;2023-12-20T04:05:05;3.70;99.90
792;DHT22;379;49.022;12.148;2023-12-20T04:07:32;3.70;99.90
792;DHT22;379;49.022;12.148;2023-12-20T04:09:59;3.70;99.90
792;DHT22;379;49.022;12.148;2023-12-20T04:12:26;3.70;99.90
792;DHT22;379;49.022;12.148;2023-12-20T04:14:53;3.80;99.90
792;DHT22;379;49.022;12.148;2023-12-20T04:17:20;3.80;99.90
792;DHT22;379;49.022;12.148;2023-12-20T04:19:48;3.80;99.90
792;DHT22;379;49.022;12.148;2023-12-20T04:22:17;3.80;99.90
792;DHT22;379;49.022;12.148;2023-12-20T04:24:44;3.80;99.90
792;DHT22;379;49.022;12.148;2023-12-20T04:27:11;3.80;99.90
792;DHT22;379;49.022;12.148;2023-12-20T04:29:38;3.80;99.90
792;DHT22;379;49.022;12.148;2023-12-20T04:32:05;3.80;99.90
792;DHT22;379;49.022;12.148;2023-12-20T04:34:32;3.80;99.90
792;DHT22;379;49.022;12.148;2023-12-20T04:36:58;3.70;99.90
792;DHT22;379;49.022;12.148;2023-12-20T04:39:28;3.70;99.90
792;DHT22;379;49.022;12.148;2023-12-20T04:41:55;3.80;99.90
792;DHT22;379;49.022;12.148;2023-12-20T04:44:21;3.70;99.90
792;DHT22;379;49.022;12.148;2023-12-20T04:46:49;3.70;99.90
792;DHT22;379;49.022;12.148;2023-12-20T04:49:15;3.70;99.90
792;DHT22;379;49.022;12.148;2023-12-20T04:51:42;3.70;99.90
792;DHT22;379;49.022;12.148;2023-12-20T04:54:09;3.70;99.90
792;DHT22;379;49.022;12.148;2023-12-20T04:56:37;3.70;99.90
792;DHT22;379;49.022;12.148;2023-12-20T04:59:04;3.70;99.90
792;DHT22;379;49.022;12.148;2023-12-20T05:01:31;3.70;99.90
792;DHT22;379;49.022;12.148;2023-12-20T05:03:58;3.70;99.90
792;DHT22;379;49.022;12.148;2023-12-20T05:06:24;3.70;99.90
792;DHT22;379;49.022;12.148;2023-12-20T05:08:51;3.70;99.90
792;DHT22;379;49.022;12.148;2023-12-20T05:11:18;3.70;99.90
792;DHT22;379;49.022;12.148;2023-12-20T05:13:46;3.70;99.90
792;DHT22;379;49.022;12.148;2023-12-20T05:16:12;3.70;99.90
792;DHT22;379;49.022;12.148;2023-12-20T05:18:40;3.70;99.90
792;DHT22;379;49.022;12.148;2023-12-20T05:21:07;3.70;99.90
792;DHT22;379;49.022;12.148;2023-12-20T05:23:34;3.70;99.90
792;DHT22;379;49.022;12.148;2023-12-20T05:26:01;3.70;99.90
792;DHT22;379;49.022;12.148;2023-12-20T05:28:27;3.70;99.90
792;DHT22;379;49.022;12.148;2023-12-20T05:30:55;3.70;99.90
792;DHT22;379;49.022;12.148;2023-12-20T05:33:22;3.70;99.90
792;DHT22;379;49.022;12.148;2023-12-20T05:35:49;3.70;99.90
792;DHT22;379;49.022;12.148;2023-12-20T05:38:15;3.70;99.90
792;DHT22;379;49.022;12.148;2023-12-20T05:40:42;3.70;99.90
792;DHT22;379;49.022;12.148;2023-12-20T05:43:09;3.70;99.90
792;DHT22;379;49.022;12.148;2023-12-20T05:45:36;3.70;99.90
792;DHT22;379;49.022;12.148;2023-12-20T05:48:04;3.70;99.90
792;DHT22;379;49.022;12.148;2023-12-20T05:50:31;3.70;99.90
792;DHT22;379;49.022;12.148;2023-12-20T05:52:58;3.70;99.90
792;DHT22;379;49.022;12.148;2023-12-20T05:55:24;3.70;99.90
792;DHT22;379;49.022;12.148;2023-12-20T05:57:51;3.70;99.90
792;DHT22;379;49.022;12.148;2023-12-20T06:00:18;3.70;99.90
792;DHT22;379;49.022;12.148;2023-12-20T06:02:45;3.70;99.90
792;DHT22;379;49.022;12.148;2023-12-20T06:05:13;3.70;99.90
792;DHT22;379;49.022;12.148;2023-12-20T06:07:40;3.80;99.90
792;DHT22;379;49.022;12.148;2023-12-20T06:10:07;3.80;99.90
792;DHT22;379;49.022;12.148;2023-12-20T06:12:35;3.80;99.90
792;DHT22;379;49.022;12.148;2023-12-20T06:15:02;3.80;99.90
792;DHT22;379;49.022;12.148;2023-12-20T06:17:29;3.80;99.90
792;DHT22;379;49.022;12.148;2023-12-20T06:19:56;3.80;99.90
792;DHT22;379;49.022;12.148;2023-12-20T06:22:24;3.80;99.90
792;DHT22;379;49.022;12.148;2023-12-20T06:24:51;3.80;99.90
792;DHT22;379;49.022;12.148;2023-12-20T06:27:18;3.80;99.90
792;DHT22;379;49.022;12.148;2023-12-20T06:29:45;3.80;99.90
792;DHT22;379;49.022;12.148;2023-12-20T06:32:11;3.80;99.90
792;DHT22;379;49.022;12.148;2023-12-20T06:34:38;3.80;99.90
792;DHT22;379;49.022;12.148;2023-12-20T06:37:05;3.80;99.90
792;DHT22;379;49.022;12.148;2023-12-20T06:39:33;3.80;99.90
792;DHT22;379;49.022;12.148;2023-12-20T06:42:00;3.80;99.90
792;DHT22;379;49.022;12.148;2023-12-20T06:44:27;3.80;99.90
792;DHT22;379;49.022;12.148;2023-12-20T06:46:53;3.80;99.90
792;DHT22;379;49.022;12.148;2023-12-20T06:49:20;3.80;99.90
792;DHT22;379;49.022;12.148;2023-12-20T06:51:47;3.80;99.90
792;DHT22;379;49.022;12.148;2023-12-20T06:54:13;3.80;99.90
792;DHT22;379;49.022;12.148;2023-12-20T06:56:41;3.80;99.90
792;DHT22;379;49.022;12.148;2023-12-20T06:59:08;3.90;99.90
792;DHT22;379;49.022;12.148;2023-12-20T07:01:35;3.90;99.90
792;DHT22;379;49.022;12.148;2023-12-20T07:04:02;4.00;99.90
792;DHT22;379;49.022;12.148;2023-12-20T07:06:28;4.20;99.90
792;DHT22;379;49.022;12.148;2023-12-20T07:08:55;4.40;99.90
792;DHT22;379;49.022;12.148;2023-12-20T07:11:22;4.50;99.90
792;DHT22;379;49.022;12.148;2023-12-20T07:13:51;4.40;99.90
792;DHT22;379;49.022;12.148;2023-12-20T07:16:17;4.20;99.90
792;DHT22;379;49.022;12.148;2023-12-20T07:18:44;4.20;99.90
792;DHT22;379;49.022;12.148;2023-12-20T07:21:11;4.10;99.90
792;DHT22;379;49.022;12.148;2023-12-20T07:23:37;4.10;99.90
792;DHT22;379;49.022;12.148;2023-12-20T07:26:04;4.00;99.90
792;DHT22;379;49.022;12.148;2023-12-20T07:28:31;4.00;99.90
792;DHT22;379;49.022;12.148;2023-12-20T07:30:59;4.00;99.90
792;DHT22;379;49.022;12.148;2023-12-20T07:33:25;4.00;99.90
792;DHT22;379;49.022;12.148;2023-12-20T07:39:03;4.00;99.90
792;DHT22;379;49.022;12.148;2023-12-20T07:41:30;4.00;99.90
792;DHT22;379;49.022;12.148;2023-12-20T07:43:57;4.00;99.90
792;DHT22;379;49.022;12.148;2023-12-20T07:46:25;4.00;99.90
792;DHT22;379;49.022;12.148;2023-12-20T07:48:52;4.00;99.90
792;DHT22;379;49.022;12.148;2023-12-20T07:51:19;4.00;99.90
792;DHT22;379;49.022;12.148;2023-12-20T07:53:46;4.00;99.90
792;DHT22;379;49.022;12.148;2023-12-20T07:56:14;4.00;99.90
792;DHT22;379;49.022;12.148;2023-12-20T07:58:41;4.10;99.90
792;DHT22;379;49.022;12.148;2023-12-20T08:01:08;4.10;99.90
792;DHT22;379;49.022;12.148;2023-12-20T08:03:36;4.10;99.90
792;DHT22;379;49.022;12.148;2023-12-20T08:06:03;4.10;99.90
792;DHT22;379;49.022;12.148;2023-12-20T08:08:30;4.10;99.90
792;DHT22;379;49.022;12.148;2023-12-20T08:10:57;4.10;99.90
792;DHT22;379;49.022;12.148;2023-12-20T08:13:25;4.10;99.90
792;DHT22;379;49.022;12.148;2023-12-20T08:15:53;4.20;99.90
792;DHT22;379;49.022;12.148;2023-12-20T08:18:21;4.20;99.90
792;DHT22;379;49.022;12.148;2023-12-20T08:20:49;4.20;99.90
792;DHT22;379;49.022;12.148;2023-12-20T08:23:18;4.20;99.90
792;DHT22;379;49.022;12.148;2023-12-20T08:25:45;4.20;99.90
792;DHT22;379;49.022;12.148;2023-12-20T08:28:13;4.30;99.90
792;DHT22;379;49.022;12.148;2023-12-20T08:30:40;4.30;99.90
792;DHT22;379;49.022;12.148;2023-12-20T08:33:07;4.30;99.90
792;DHT22;379;49.022;12.148;2023-12-20T08:35:36;4.40;99.90
792;DHT22;379;49.022;12.148;2023-12-20T08:38:05;4.40;99.90
792;DHT22;379;49.022;12.148;2023-12-20T08:40:31;4.40;99.90
792;DHT22;379;49.022;12.148;2023-12-20T08:42:58;4.40;99.90
792;DHT22;379;49.022;12.148;2023-12-20T08:45:25;4.40;99.90
792;DHT22;379;49.022;12.148;2023-12-20T08:47:51;4.40;99.90
792;DHT22;379;49.022;12.148;2023-12-20T08:50:18;4.50;99.90
792;DHT22;379;49.022;12.148;2023-12-20T08:52:45;4.50;99.90
792;DHT22;379;49.022;12.148;2023-12-20T08:55:13;4.40;99.90
792;DHT22;379;49.022;12.148;2023-12-20T08:57:42;4.40;99.90
792;DHT22;379;49.022;12.148;2023-12-20T09:00:09;4.40;99.90
792;DHT22;379;49.022;12.148;2023-12-20T09:02:36;4.40;99.90
792;DHT22;379;49.022;12.148;2023-12-20T09:05:03;4.40;99.90
792;DHT22;379;49.022;12.148;2023-12-20T09:07:31;4.50;99.90
792;DHT22;379;49.022;12.148;2023-12-20T09:09:57;4.50;99.90
792;DHT22;379;49.022;12.148;2023-12-20T09:12:25;4.60;99.90
792;DHT22;379;49.022;12.148;2023-12-20T09:14:53;4.60;99.90
792;DHT22;379;49.022;12.148;2023-12-20T09:17:19;4.60;99.90
792;DHT22;379;49.022;12.148;2023-12-20T09:19:48;4.60;99.90
792;DHT22;379;49.022;12.148;2023-12-20T09:22:15;4.60;99.90
792;DHT22;379;49.022;12.148;2023-12-20T09:24:42;4.70;99.90
792;DHT22;379;49.022;12.148;2023-12-20T09:27:08;4.70;99.90
792;DHT22;379;49.022;12.148;2023-12-20T09:29:36;4.80;99.90
792;DHT22;379;49.022;12.148;2023-12-20T09:32:03;4.80;99.90
792;DHT22;379;49.022;12.148;2023-12-20T09:34:30;4.90;99.90
792;DHT22;379;49.022;12.148;2023-12-20T09:36:57;4.90;99.90
792;DHT22;379;49.022;12.148;2023-12-20T09:39:24;4.90;99.90
792;DHT22;379;49.022;12.148;2023-12-20T09:41:58;4.90;99.90
792;DHT22;379;49.022;12.148;2023-12-20T09:44:26;5.00;99.90
792;DHT22;379;49.022;12.148;2023-12-20T09:47:08;5.00;99.90
792;DHT22;379;49.022;12.148;2023-12-20T09:49:35;5.00;99.90
792;DHT22;379;49.022;12.148;2023-12-20T09:52:05;5.00;99.90
792;DHT22;379;49.022;12.148;2023-12-20T09:54:33;5.10;99.90
792;DHT22;379;49.022;12.148;2023-12-20T09:57:00;5.30;99.90
792;DHT22;379;49.022;12.148;2023-12-20T09:59:26;5.40;99.90
792;DHT22;379;49.022;12.148;2023-12-20T10:01:55;5.40;99.90
792;DHT22;379;49.022;12.148;2023-12-20T10:04:23;5.30;99.90
792;DHT22;379;49.022;12.148;2023-12-20T10:06:51;5.40;99.90
792;DHT22;379;49.022;12.148;2023-12-20T10:09:18;5.40;99.90
792;DHT22;379;49.022;12.148;2023-12-20T10:11:44;5.50;99.90
792;DHT22;379;49.022;12.148;2023-12-20T10:14:12;5.60;99.90
792;DHT22;379;49.022;12.148;2023-12-20T10:16:41;5.70;99.90
792;DHT22;379;49.022;12.148;2023-12-20T10:19:07;5.70;99.90
792;DHT22;379;49.022;12.148;2023-12-20T10:21:35;5.90;99.90
792;DHT22;379;49.022;12.148;2023-12-20T10:24:02;6.20;99.90
792;DHT22;379;49.022;12.148;2023-12-20T10:26:29;6.60;99.90
792;DHT22;379;49.022;12.148;2023-12-20T10:28:56;6.90;99.90
792;DHT22;379;49.022;12.148;2023-12-20T10:31:27;7.10;99.90
792;DHT22;379;49.022;12.148;2023-12-20T10:33:55;7.10;99.90
792;DHT22;379;49.022;12.148;2023-12-20T10:36:23;7.00;99.90
792;DHT22;379;49.022;12.148;2023-12-20T10:38:54;7.00;99.90
792;DHT22;379;49.022;12.148;2023-12-20T10:41:26;6.90;99.90
792;DHT22;379;49.022;12.148;2023-12-20T10:43:56;6.70;99.90
792;DHT22;379;49.022;12.148;2023-12-20T10:46:22;6.60;99.90
792;DHT22;379;49.022;12.148;2023-12-20T10:48:52;6.40;99.90
792;DHT22;379;49.022;12.148;2023-12-20T10:51:20;6.20;99.90
792;DHT22;379;49.022;12.148;2023-12-20T10:53:48;6.10;99.90
792;DHT22;379;49.022;12.148;2023-12-20T10:56:18;6.00;99.90
792;DHT22;379;49.022;12.148;2023-12-20T10:58:45;6.00;99.90
792;DHT22;379;49.022;12.148;2023-12-20T11:01:13;5.90;99.90
792;DHT22;379;49.022;12.148;2023-12-20T11:03:48;6.10;99.90
792;DHT22;379;49.022;12.148;2023-12-20T11:06:27;6.20;99.90
792;DHT22;379;49.022;12.148;2023-12-20T11:09:02;6.40;99.90
792;DHT22;379;49.022;12.148;2023-12-20T11:11:44;6.60;99.90
792;DHT22;379;49.022;12.148;2023-12-20T11:14:16;6.60;99.90
792;DHT22;379;49.022;12.148;2023-12-20T11:16:45;6.50;99.90
792;DHT22;379;49.022;12.148;2023-12-20T11:19:12;6.30;99.90
792;DHT22;379;49.022;12.148;2023-12-20T11:21:40;6.10;99.90
792;DHT22;379;49.022;12.148;2023-12-20T11:24:07;5.90;99.90
792;DHT22;379;49.022;12.148;2023-12-20T11:26:35;5.80;99.90
792;DHT22;379;49.022;12.148;2023-12-20T11:29:33;5.80;99.90
792;DHT22;379;49.022;12.148;2023-12-20T11:32:01;5.80;99.90
792;DHT22;379;49.022;12.148;2023-12-20T11:34:29;5.80;99.90
792;DHT22;379;49.022;12.148;2023-12-20T11:36:58;5.90;99.90
792;DHT22;379;49.022;12.148;2023-12-20T11:39:26;5.90;99.90
792;DHT22;379;49.022;12.148;2023-12-20T11:41:55;5.90;99.90
792;DHT22;379;49.022;12.148;2023-12-20T11:44:25;6.00;99.90
792;DHT22;379;49.022;12.148;2023-12-20T11:46:52;6.00;99.90
792;DHT22;379;49.022;12.148;2023-12-20T11:49:23;6.00;99.90
792;DHT22;379;49.022;12.148;2023-12-20T11:51:50;6.00;99.90
792;DHT22;379;49.022;12.148;2023-12-20T11:54:17;6.10;99.90
792;DHT22;379;49.022;12.148;2023-12-20T11:56:44;6.20;99.90
792;DHT22;379;49.022;12.148;2023-12-20T11:59:12;6.20;99.90
792;DHT22;379;49.022;12.148;2023-12-20T12:01:39;6.30;99.90
792;DHT22;379;49.022;12.148;2023-12-20T12:04:06;6.30;99.90
792;DHT22;379;49.022;12.148;2023-12-20T12:06:33;6.40;99.90
792;DHT22;379;49.022;12.148;2023-12-20T12:09:00;6.60;99.90
792;DHT22;379;49.022;12.148;2023-12-20T12:11:27;6.70;99.90
792;DHT22;379;49.022;12.148;2023-12-20T12:13:54;6.80;99.90
792;DHT22;379;49.022;12.148;2023-12-20T12:16:22;6.80;99.90
792;DHT22;379;49.022;12.148;2023-12-20T12:18:55;6.80;99.90
792;DHT22;379;49.022;12.148;2023-12-20T12:21:23;6.80;99.90
792;DHT22;379;49.022;12.148;2023-12-20T12:23:50;6.70;99.90
792;DHT22;379;49.022;12.148;2023-12-20T12:26:16;6.50;99.90
792;DHT22;379;49.022;12.148;2023-12-20T12:28:43;6.40;99.90
792;DHT22;379;49.022;12.148;2023-12-20T12:31:13;6.30;99.90
792;DHT22;379;49.022;12.148;2023-12-20T12:33:43;6.30;99.90
792;DHT22;379;49.022;12.148;2023-12-20T12:36:10;6.20;99.90
792;DHT22;379;49.022;12.148;2023-12-20T12:38:37;6.10;99.90
792;DHT22;379;49.022;12.148;2023-12-20T12:41:04;6.00;99.90
792;DHT22;379;49.022;12.148;2023-12-20T12:43:32;6.00;99.90
792;DHT22;379;49.022;12.148;2023-12-20T12:45:58;6.00;99.90
792;DHT22;379;49.022;12.148;2023-12-20T12:48:25;6.00;99.90
792;DHT22;379;49.022;12.148;2023-12-20T12:50:54;6.10;99.90
792;DHT22;379;49.022;12.148;2023-12-20T12:53:24;6.10;99.90
792;DHT22;379;49.022;12.148;2023-12-20T12:55:52;6.20;99.90
792;DHT22;379;49.022;12.148;2023-12-20T12:58:18;6.20;99.90
792;DHT22;379;49.022;12.148;2023-12-20T13:00:45;6.20;99.90
792;DHT22;379;49.022;12.148;2023-12-20T13:03:12;6.20;99.90
792;DHT22;379;49.022;12.148;2023-12-20T13:05:38;6.20;99.90
792;DHT22;379;49.022;12.148;2023-12-20T13:08:07;6.10;99.90
792;DHT22;379;49.022;12.148;2023-12-20T13:10:35;6.10;99.90
792;DHT22;379;49.022;12.148;2023-12-20T13:13:01;6.00;99.90
792;DHT22;379;49.022;12.148;2023-12-20T13:15:29;6.00;99.90
792;DHT22;379;49.022;12.148;2023-12-20T13:17:57;5.90;99.90
792;DHT22;379;49.022;12.148;2023-12-20T13:20:23;5.90;99.90
792;DHT22;379;49.022;12.148;2023-12-20T13:22:50;5.90;99.90
792;DHT22;379;49.022;12.148;2023-12-20T13:25:18;6.00;99.90
792;DHT22;379;49.022;12.148;2023-12-20T13:27:45;6.00;99.90
792;DHT22;379;49.022;12.148;2023-12-20T13:30:12;5.90;99.90
792;DHT22;379;49.022;12.148;2023-12-20T13:32:39;5.90;99.90
792;DHT22;379;49.022;12.148;2023-12-20T13:35:06;5.90;99.90
792;DHT22;379;49.022;12.148;2023-12-20T13:37:33;5.80;99.90
792;DHT22;379;49.022;12.148;2023-12-20T13:39:59;5.70;99.90
792;DHT22;379;49.022;12.148;2023-12-20T13:42:28;5.70;99.90
792;DHT22;379;49.022;12.148;2023-12-20T13:44:55;5.70;99.90
792;DHT22;379;49.022;12.148;2023-12-20T13:47:21;5.70;99.90
792;DHT22;379;49.022;12.148;2023-12-20T13:49:48;5.70;99.90
792;DHT22;379;49.022;12.148;2023-12-20T13:52:15;5.70;99.90
792;DHT22;379;49.022;12.148;2023-12-20T13:54:42;5.70;99.90
792;DHT22;379;49.022;12.148;2023-12-20T13:57:09;5.60;99.90
792;DHT22;379;49.022;12.148;2023-12-20T13:59:37;5.60;99.90
792;DHT22;379;49.022;12.148;2023-12-20T14:02:04;5.60;99.90
792;DHT22;379;49.022;12.148;2023-12-20T14:04:31;5.60;99.90
792;DHT22;379;49.022;12.148;2023-12-20T14:06:57;5.50;99.90
792;DHT22;379;49.022;12.148;2023-12-20T14:09:24;5.50;99.90
792;DHT22;379;49.022;12.148;2023-12-20T14:11:51;5.40;99.90
792;DHT22;379;49.022;12.148;2023-12-20T14:14:18;5.40;99.90
792;DHT22;379;49.022;12.148;2023-12-20T14:16:46;5.40;99.90
792;DHT22;379;49.022;12.148;2023-12-20T14:19:12;5.30;99.90
792;DHT22;379;49.022;12.148;2023-12-20T14:21:39;5.30;99.90
792;DHT22;379;49.022;12.148;2023-12-20T14:24:06;5.20;99.90
792;DHT22;379;49.022;12.148;2023-12-20T14:26:33;5.10;99.90
792;DHT22;379;49.022;12.148;2023-12-20T14:29:00;5.10;99.90
792;DHT22;379;49.022;12.148;2023-12-20T14:31:26;5.00;99.90
792;DHT22;379;49.022;12.148;2023-12-20T14:33:54;5.00;99.90
792;DHT22;379;49.022;12.148;2023-12-20T14:36:21;5.00;99.90
792;DHT22;379;49.022;12.148;2023-12-20T14:38:48;5.00;99.90
792;DHT22;379;49.022;12.148;2023-12-20T14:41:15;5.00;99.90
792;DHT22;379;49.022;12.148;2023-12-20T14:43:42;5.00;99.90
792;DHT22;379;49.022;12.148;2023-12-20T14:46:09;4.90;99.90
792;DHT22;379;49.022;12.148;2023-12-20T14:48:36;4.90;99.90
792;DHT22;379;49.022;12.148;2023-12-20T14:51:04;4.80;99.90
792;DHT22;379;49.022;12.148;2023-12-20T14:53:31;4.70;99.90
792;DHT22;379;49.022;12.148;2023-12-20T14:55:57;4.60;99.90
792;DHT22;379;49.022;12.148;2023-12-20T14:58:24;4.60;99.90
792;DHT22;379;49.022;12.148;2023-12-20T15:00:52;4.70;99.90
792;DHT22;379;49.022;12.148;2023-12-20T15:03:18;4.60;99.90
792;DHT22;379;49.022;12.148;2023-12-20T15:05:45;4.60;99.90
792;DHT22;379;49.022;12.148;2023-12-20T15:08:14;4.60;99.90
792;DHT22;379;49.022;12.148;2023-12-20T15:10:41;4.60;99.90
792;DHT22;379;49.022;12.148;2023-12-20T15:13:08;4.60;99.90
792;DHT22;379;49.022;12.148;2023-12-20T15:15:35;4.60;99.90
792;DHT22;379;49.022;12.148;2023-12-20T15:18:03;4.40;99.90
792;DHT22;379;49.022;12.148;2023-12-20T15:20:30;4.30;99.90
792;DHT22;379;49.022;12.148;2023-12-20T15:22:58;4.10;99.90
792;DHT22;379;49.022;12.148;2023-12-20T15:25:31;3.90;99.90
792;DHT22;379;49.022;12.148;2023-12-20T15:27:58;3.80;99.90
792;DHT22;379;49.022;12.148;2023-12-20T15:30:25;3.70;99.90
792;DHT22;379;49.022;12.148;2023-12-20T15:32:51;3.60;99.90
792;DHT22;379;49.022;12.148;2023-12-20T15:35:18;3.60;99.90
792;DHT22;379;49.022;12.148;2023-12-20T15:37:45;3.60;99.90
792;DHT22;379;49.022;12.148;2023-12-20T15:40:12;3.70;99.90
792;DHT22;379;49.022;12.148;2023-12-20T15:42:40;3.70;99.90
792;DHT22;379;49.022;12.148;2023-12-20T15:45:07;3.70;99.90
792;DHT22;379;49.022;12.148;2023-12-20T15:47:34;3.80;99.90
792;DHT22;379;49.022;12.148;2023-12-20T15:50:02;3.80;99.90
792;DHT22;379;49.022;12.148;2023-12-20T15:52:29;3.90;99.90
792;DHT22;379;49.022;12.148;2023-12-20T15:54:56;3.90;99.90
792;DHT22;379;49.022;12.148;2023-12-20T15:57:23;3.90;99.90
792;DHT22;379;49.022;12.148;2023-12-20T15:59:51;4.00;99.90
792;DHT22;379;49.022;12.148;2023-12-20T16:02:17;4.00;99.90
792;DHT22;379;49.022;12.148;2023-12-20T16:04:44;4.00;99.90
792;DHT22;379;49.022;12.148;2023-12-20T16:07:11;4.10;99.90
792;DHT22;379;49.022;12.148;2023-12-20T16:09:38;4.10;99.90
792;DHT22;379;49.022;12.148;2023-12-20T16:12:05;4.00;99.90
792;DHT22;379;49.022;12.148;2023-12-20T16:14:32;4.00;99.90
792;DHT22;379;49.022;12.148;2023-12-20T16:17:00;4.00;99.90
792;DHT22;379;49.022;12.148;2023-12-20T16:19:27;4.00;99.90
792;DHT22;379;49.022;12.148;2023-12-20T16:21:53;4.00;99.90
792;DHT22;379;49.022;12.148;2023-12-20T16:24:20;4.00;99.90
792;DHT22;379;49.022;12.148;2023-12-20T16:26:47;4.00;99.90
792;DHT22;379;49.022;12.148;2023-12-20T16:29:13;4.10;99.90
792;DHT22;379;49.022;12.148;2023-12-20T16:31:40;4.40;99.90
792;DHT22;379;49.022;12.148;2023-12-20T16:34:08;4.60;99.90
792;DHT22;379;49.022;12.148;2023-12-20T16:36:48;4.50;99.90
792;DHT22;379;49.022;12.148;2023-12-20T16:39:15;4.40;99.90